Terminal Aerodrome Forecast
Issued by NWS Pendleton, OR

Home | Current Version | Previous Version | Text Only | Print | Product List | Glossary On
Versions: 1 2 3 4 5 6 7 8 9 10 11 12 13 14
000
FTUS46 KPDT 270539
TAFPDT
TAF
KPDT 270539Z 2706/2806 15007KT P6SM BKN250
     FM271500 VRB06KT P6SM SCT250
     FM280400 15007KT P6SM SCT250=

USA.gov is the U.S. government's official web portal to all federal, state and local government web resources and services.